Time;durP1;ratioP1;P1;durP2;ratioP2;P2;SDS_P1;SDS_P2;PMS_P1;PMS_P2;Temp;Humidity;BMP_temperature;BMP_pressure;BME280_temperature;BME280_humidity;BME280_pressure;Samples;Min_cycle;Max_cycle;Signal;HPM_P1;HPM_P2
2023/08/07 00:01:53;;;;;;;;;2.00;1.00;;;;;14.36;87.11;101288.81;5024846;28;9064;-70
2023/08/07 00:04:19;;;;;;;;;1.00;1.00;;;;;14.35;87.28;101282.56;4996367;28;9150;-69
2023/08/07 00:06:46;;;;;;;;;1.33;0.00;;;;;14.35;86.82;101298.81;5004781;28;9075;-69
2023/08/07 00:09:12;;;;;;;;;1.00;1.00;;;;;14.32;87.10;101287.56;4994677;28;9271;-68
2023/08/07 00:11:39;;;;;;;;;4.00;1.33;;;;;14.31;87.58;101281.31;5003290;28;9265;-69
2023/08/07 00:14:05;;;;;;;;;1.00;1.00;;;;;14.33;87.76;101283.78;5008083;28;8988;-69
2023/08/07 00:16:32;;;;;;;;;2.00;2.00;;;;;14.30;87.85;101267.94;5013077;28;9135;-69
2023/08/07 00:18:58;;;;;;;;;1.33;1.33;;;;;14.28;87.89;101270.88;5012832;28;9260;-70
2023/08/07 00:21:25;;;;;;;;;1.67;1.67;;;;;14.27;88.00;101273.81;5010452;28;9232;-66
2023/08/07 00:23:51;;;;;;;;;1.67;1.67;;;;;14.26;88.00;101278.41;5007395;28;9100;-69
2023/08/07 00:26:18;;;;;;;;;0.67;0.00;;;;;14.27;88.09;101276.50;5000113;28;9179;-69
2023/08/07 00:28:44;;;;;;;;;1.00;1.00;;;;;14.25;88.03;101275.88;5024478;28;9070;-67
2023/08/07 00:31:12;;;;;;;;;1.00;1.00;;;;;14.25;88.09;101265.88;5007499;28;9193;-69
2023/08/07 00:33:39;;;;;;;;;1.00;1.00;;;;;14.27;88.02;101277.34;5007234;28;9076;-68
2023/08/07 00:36:07;;;;;;;;;1.00;1.00;;;;;14.29;88.08;101277.13;4992955;28;9109;-69
2023/08/07 00:38:33;;;;;;;;;2.00;2.00;;;;;14.29;87.38;101274.41;4995011;28;9232;-68
2023/08/07 00:41:00;;;;;;;;;3.67;2.00;;;;;14.27;86.91;101280.06;5006143;28;9247;-70
2023/08/07 00:43:26;;;;;;;;;3.00;2.00;;;;;14.23;87.27;101275.25;5011515;28;9172;-69
2023/08/07 00:45:53;;;;;;;;;1.67;1.67;;;;;14.19;86.85;101271.31;4994198;28;9259;-67
2023/08/07 00:48:21;;;;;;;;;1.00;1.00;;;;;14.16;87.09;101286.06;4993041;28;9235;-68
2023/08/07 00:50:48;;;;;;;;;4.00;3.00;;;;;14.14;87.13;101274.63;5002368;28;9631;-69
2023/08/07 00:53:15;;;;;;;;;1.00;1.00;;;;;14.20;87.23;101278.38;5009806;28;9536;-68
2023/08/07 00:55:42;;;;;;;;;2.00;2.00;;;;;14.20;86.66;101268.38;5010487;28;9864;-69
2023/08/07 00:58:08;;;;;;;;;0.33;0.00;;;;;14.24;86.63;101269.63;5005906;28;9042;-69
2023/08/07 01:00:35;;;;;;;;;6.00;3.00;;;;;14.26;86.53;101264.00;5025515;28;9156;-69
2023/08/07 01:03:05;;;;;;;;;1.00;1.00;;;;;14.33;86.15;101281.09;5009272;28;9261;-69
2023/08/07 01:05:32;;;;;;;;;2.00;1.00;;;;;14.29;85.72;101275.25;5010718;28;9078;-69
2023/08/07 01:08:00;;;;;;;;;0.00;0.00;;;;;14.30;85.58;101267.94;5010762;28;9273;-69
2023/08/07 01:11:11;;;;;;;;;1.67;1.00;;;;;14.25;85.03;101271.28;5007171;28;8988;-69
2023/08/07 01:13:57;;;;;;;;;2.33;1.67;;;;;14.21;85.00;101271.91;5005553;28;9061;-69
2023/08/07 01:16:32;;;;;;;;;2.00;1.00;;;;;14.17;84.18;101274.19;5016699;28;9224;-69
2023/08/07 01:19:01;;;;;;;;;1.33;1.33;;;;;14.16;84.01;101272.53;4994169;28;9168;-69
2023/08/07 01:21:27;;;;;;;;;2.00;2.00;;;;;14.19;83.57;101276.72;4998003;28;9151;-69
2023/08/07 01:23:54;;;;;;;;;1.00;1.00;;;;;14.24;83.76;101275.03;5009588;28;9151;-70
2023/08/07 01:26:21;;;;;;;;;1.00;1.00;;;;;14.30;83.66;101278.78;5009247;28;9247;-68
2023/08/07 01:29:12;;;;;;;;;1.00;1.00;;;;;14.35;83.93;101266.31;5007640;28;9148;-69
2023/08/07 01:31:41;;;;;;;;;3.00;3.00;;;;;14.37;83.78;101267.97;5009070;28;8934;-70
2023/08/07 01:34:12;;;;;;;;;3.00;2.00;;;;;14.41;83.78;101274.63;5009047;28;9066;-70
2023/08/07 01:36:39;;;;;;;;;1.00;1.00;;;;;14.40;83.90;101270.25;5003676;28;9201;-70
2023/08/07 01:39:09;;;;;;;;;2.00;2.00;;;;;14.38;84.44;101275.03;5020246;28;9016;-69
2023/08/07 01:41:36;;;;;;;;;2.33;1.33;;;;;14.43;84.22;101275.25;5007996;28;9231;-69
2023/08/07 01:44:03;;;;;;;;;2.67;2.67;;;;;14.40;84.23;101272.97;5004581;28;9088;-69
2023/08/07 01:46:30;;;;;;;;;4.00;3.00;;;;;14.32;84.38;101280.25;5009810;28;9928;-70
2023/08/07 01:48:56;;;;;;;;;1.33;1.00;;;;;14.33;84.10;101287.31;5010419;28;9320;-69
2023/08/07 01:51:23;;;;;;;;;1.00;1.00;;;;;14.39;83.47;101279.44;5003356;28;9646;-69
2023/08/07 01:53:49;;;;;;;;;2.00;2.00;;;;;14.40;84.12;101276.50;5004062;28;8982;-69
2023/08/07 01:56:16;;;;;;;;;1.00;1.00;;;;;14.41;83.37;101280.03;5002794;28;9088;-68
2023/08/07 01:58:42;;;;;;;;;2.00;0.33;;;;;14.40;82.96;101283.81;4990707;28;9061;-69
2023/08/07 02:01:09;;;;;;;;;1.00;1.00;;;;;14.41;83.13;101280.03;4983842;28;9016;-70
2023/08/07 02:03:35;;;;;;;;;2.67;0.00;;;;;14.42;83.03;101284.41;5008857;28;9093;-68
2023/08/07 02:06:02;;;;;;;;;2.00;1.67;;;;;14.36;82.64;101272.53;5025649;28;9095;-69
2023/08/07 02:08:29;;;;;;;;;1.00;0.33;;;;;14.41;82.31;101280.03;5004605;28;9158;-70
2023/08/07 02:10:55;;;;;;;;;2.00;1.00;;;;;14.43;82.21;101291.53;5005690;28;9012;-70
2023/08/07 02:13:22;;;;;;;;;2.33;1.33;;;;;14.38;82.21;101296.72;5011092;28;9078;-69
2023/08/07 02:15:48;;;;;;;;;2.00;1.00;;;;;14.32;82.56;101301.91;5022562;28;9169;-69
2023/08/07 02:18:15;;;;;;;;;1.00;1.00;;;;;14.36;83.01;101307.75;5009514;28;9068;-70
2023/08/07 02:20:41;;;;;;;;;3.00;2.00;;;;;14.31;83.89;101319.22;5010738;28;9089;-69
2023/08/07 02:23:08;;;;;;;;;2.33;1.33;;;;;14.28;84.40;101313.38;5006333;28;9015;-69
2023/08/07 02:25:34;;;;;;;;;2.67;1.67;;;;;14.29;85.27;101305.03;4993410;28;9177;-69
2023/08/07 02:28:01;;;;;;;;;1.33;1.00;;;;;14.24;85.65;101312.94;5007275;28;9213;-69
2023/08/07 02:30:27;;;;;;;;;1.33;1.33;;;;;14.24;85.89;101307.53;5004967;28;9155;-67
2023/08/07 02:32:54;;;;;;;;;2.33;1.00;;;;;14.13;86.31;101313.56;5006533;28;9079;-66
2023/08/07 02:35:20;;;;;;;;;1.00;0.33;;;;;14.09;87.45;101320.41;5025811;28;9082;-68
2023/08/07 02:37:47;;;;;;;;;3.00;0.67;;;;;13.99;87.44;101318.13;5009080;28;8987;-69
2023/08/07 02:40:15;;;;;;;;;0.67;0.67;;;;;13.99;87.94;101325.41;5008558;28;9086;-69
2023/08/07 02:42:42;;;;;;;;;2.00;1.33;;;;;13.95;88.02;101313.34;4996729;28;9147;-69
2023/08/07 02:45:08;;;;;;;;;4.33;1.00;;;;;13.94;88.36;101314.38;5006006;28;9147;-69
2023/08/07 02:47:35;;;;;;;;;0.00;0.00;;;;;13.96;88.03;101306.88;4993190;28;9176;-68
2023/08/07 02:50:02;;;;;;;;;1.33;0.33;;;;;13.92;88.17;101316.44;5007767;28;9739;-69
2023/08/07 02:52:29;;;;;;;;;0.00;0.00;;;;;13.91;88.05;101307.50;5006197;28;9011;-69
2023/08/07 02:54:56;;;;;;;;;0.00;0.00;;;;;13.91;88.54;101314.78;5025819;28;9013;-69
2023/08/07 02:57:22;;;;;;;;;0.00;0.00;;;;;13.89;88.22;101309.56;5009847;28;9934;-69
2023/08/07 02:59:49;;;;;;;;;2.00;1.00;;;;;13.88;88.35;101301.66;4992092;28;9735;-66
2023/08/07 03:02:16;;;;;;;;;1.33;0.00;;;;;13.85;88.42;101306.44;5016038;28;9087;-69
2023/08/07 03:04:43;;;;;;;;;1.33;1.00;;;;;13.84;88.67;101307.47;5006638;28;9092;-69
2023/08/07 03:07:09;;;;;;;;;0.00;0.00;;;;;13.86;88.89;101299.16;5007976;28;9263;-68
2023/08/07 03:09:36;;;;;;;;;1.33;0.67;;;;;13.91;88.74;101301.25;5001023;28;10123;-69
2023/08/07 03:12:04;;;;;;;;;1.33;0.00;;;;;13.94;89.29;101295.44;5003260;28;9924;-69
2023/08/07 03:14:30;;;;;;;;;5.00;1.00;;;;;13.97;89.23;101301.25;5009219;28;9084;-69
2023/08/07 03:16:57;;;;;;;;;1.00;1.00;;;;;13.94;89.07;101303.56;5025319;28;9173;-69
2023/08/07 03:19:24;;;;;;;;;4.33;2.00;;;;;13.96;89.01;101301.47;4994534;28;9992;-69
2023/08/07 03:21:50;;;;;;;;;1.00;1.00;;;;;13.97;88.94;101309.38;5003601;28;10008;-68
2023/08/07 03:24:17;;;;;;;;;2.67;2.00;;;;;13.98;88.29;101307.53;5002599;28;9300;-68
2023/08/07 03:26:44;;;;;;;;;1.67;1.00;;;;;13.97;88.60;101295.00;5002946;28;9267;-68
2023/08/07 03:29:12;;;;;;;;;2.00;1.00;;;;;13.95;88.98;101292.50;5004621;28;9436;-68
2023/08/07 03:31:38;;;;;;;;;1.67;1.33;;;;;14.01;89.16;101309.78;5008866;28;9070;-69
2023/08/07 03:34:05;;;;;;;;;1.67;1.67;;;;;14.04;89.05;101301.25;5008892;28;9373;-68
2023/08/07 03:36:32;;;;;;;;;2.00;2.00;;;;;14.06;89.07;101299.19;5023083;28;9295;-68
2023/08/07 03:38:59;;;;;;;;;2.00;2.00;;;;;14.07;88.59;101309.81;5009427;28;9232;-68
2023/08/07 03:41:27;;;;;;;;;1.00;1.00;;;;;14.05;88.64;101302.94;5029052;28;9247;-69
2023/08/07 03:43:54;;;;;;;;;2.00;1.00;;;;;14.09;88.75;101304.19;5008828;28;9252;-68
2023/08/07 03:46:22;;;;;;;;;3.00;1.67;;;;;14.10;88.47;101300.47;5020373;28;9208;-69
2023/08/07 03:48:50;;;;;;;;;1.00;1.00;;;;;14.12;88.51;101305.66;5010394;28;9189;-69
2023/08/07 03:51:18;;;;;;;;;2.00;2.00;;;;;14.12;88.31;101303.78;5004477;28;9093;-66
2023/08/07 03:53:49;;;;;;;;;2.00;1.00;;;;;14.14;88.25;101309.84;4977951;28;9174;-68
2023/08/07 03:56:15;;;;;;;;;3.00;2.00;;;;;14.15;87.51;101294.41;5010879;28;10152;-69
2023/08/07 03:58:42;;;;;;;;;2.67;1.00;;;;;14.16;87.45;101304.19;5012530;28;9269;-68
2023/08/07 04:01:08;;;;;;;;;2.67;0.00;;;;;14.18;87.18;101307.53;5008783;28;9106;-68
2023/08/07 04:03:36;;;;;;;;;1.33;1.33;;;;;14.13;86.96;101300.03;5012477;28;9238;-69
2023/08/07 04:06:05;;;;;;;;;4.00;2.00;;;;;14.17;86.81;101303.16;5012219;28;10133;-69
2023/08/07 04:08:31;;;;;;;;;1.67;1.33;;;;;14.17;86.34;101298.56;5015522;28;9193;-69
2023/08/07 04:10:58;;;;;;;;;3.67;2.00;;;;;14.17;86.52;101300.44;5003861;28;9246;-68
2023/08/07 04:13:26;;;;;;;;;3.67;1.00;;;;;14.24;85.79;101301.28;5012147;28;9293;-68
2023/08/07 04:15:53;;;;;;;;;1.67;1.67;;;;;14.23;85.65;101303.16;5013368;28;9221;-69
2023/08/07 04:18:20;;;;;;;;;2.00;1.00;;;;;14.26;85.75;101302.75;5012174;28;9796;-68
2023/08/07 04:20:52;;;;;;;;;1.33;0.67;;;;;14.28;85.94;101314.22;5017547;28;9274;-69
2023/08/07 04:23:19;;;;;;;;;4.33;2.00;;;;;14.30;85.43;101314.84;5011457;28;9341;-68
2023/08/07 04:25:50;;;;;;;;;1.33;1.33;;;;;14.38;85.08;101311.09;4997927;28;9281;-69
2023/08/07 04:28:17;;;;;;;;;0.67;0.67;;;;;14.41;84.95;101326.09;4997056;28;9967;-68
2023/08/07 04:30:44;;;;;;;;;1.00;1.00;;;;;14.38;85.14;101321.09;5011908;28;9066;-69
2023/08/07 04:33:11;;;;;;;;;3.00;1.00;;;;;14.43;85.07;101321.31;5013085;28;9165;-68
2023/08/07 04:35:37;;;;;;;;;2.00;2.00;;;;;14.40;85.22;101327.13;5011996;28;9306;-68
2023/08/07 04:38:04;;;;;;;;;2.00;2.00;;;;;14.42;84.99;101325.91;5008493;28;9906;-69
2023/08/07 04:40:30;;;;;;;;;2.00;2.00;;;;;14.45;84.92;101332.75;5003535;28;9090;-68
2023/08/07 04:42:57;;;;;;;;;1.33;1.00;;;;;14.41;84.85;101328.78;4999719;28;9278;-69
2023/08/07 04:45:23;;;;;;;;;1.33;1.00;;;;;14.42;85.08;101336.72;5012477;28;9164;-68
2023/08/07 04:47:50;;;;;;;;;1.00;1.00;;;;;14.44;85.01;101345.47;5009981;28;9296;-68
2023/08/07 04:50:17;;;;;;;;;5.00;2.00;;;;;14.48;84.88;101337.78;5006530;28;9205;-68
2023/08/07 04:52:44;;;;;;;;;1.67;1.67;;;;;14.47;84.72;101344.25;5006235;28;9054;-69
2023/08/07 04:55:10;;;;;;;;;1.33;1.00;;;;;14.49;84.74;101348.41;5004125;28;9023;-69
2023/08/07 04:57:37;;;;;;;;;1.67;1.00;;;;;14.53;84.70;101348.84;5008561;28;9157;-68
2023/08/07 05:00:04;;;;;;;;;1.00;1.00;;;;;14.57;84.30;101350.09;5005823;28;9715;-68
2023/08/07 05:02:31;;;;;;;;;2.00;2.00;;;;;14.56;84.84;101364.69;5003582;28;9309;-69
2023/08/07 05:04:57;;;;;;;;;2.00;2.00;;;;;14.53;84.94;101362.38;5008375;28;9005;-68
2023/08/07 05:07:24;;;;;;;;;1.33;1.33;;;;;14.39;85.40;101361.53;5006017;28;9073;-68
2023/08/07 05:09:50;;;;;;;;;0.00;0.00;;;;;14.31;85.63;101369.84;5002732;28;9148;-68
2023/08/07 05:12:17;;;;;;;;;0.67;0.67;;;;;14.23;85.69;101356.50;5012061;28;9010;-69
2023/08/07 05:14:43;;;;;;;;;1.00;1.00;;;;;14.19;86.41;101357.94;5003456;28;9189;-69
2023/08/07 05:17:10;;;;;;;;;3.00;2.00;;;;;14.22;86.99;101361.09;5008511;28;9082;-68
2023/08/07 05:19:36;;;;;;;;;1.00;1.00;;;;;14.27;86.92;101377.53;5011167;28;9150;-69
2023/08/07 05:22:03;;;;;;;;;3.00;3.00;;;;;14.32;87.17;101371.50;4992720;28;9197;-69
2023/08/07 05:24:35;;;;;;;;;2.00;2.00;;;;;14.34;86.95;101367.56;5024563;28;9173;-69
2023/08/07 05:27:01;;;;;;;;;2.00;2.00;;;;;14.36;87.03;101370.06;4996503;28;9168;-69
2023/08/07 05:29:28;;;;;;;;;2.67;2.00;;;;;14.37;87.23;101373.59;5004617;28;9067;-68
2023/08/07 05:31:54;;;;;;;;;2.00;2.00;;;;;14.39;86.93;101385.91;5000119;28;9268;-68
2023/08/07 05:34:21;;;;;;;;;2.67;2.00;;;;;14.32;87.09;101385.03;5007601;28;9209;-68
2023/08/07 05:36:48;;;;;;;;;2.00;2.00;;;;;14.28;86.85;101383.78;5003842;28;9255;-69
2023/08/07 05:39:15;;;;;;;;;4.67;3.67;;;;;14.28;86.60;101381.06;4998974;28;9331;-69
2023/08/07 05:41:42;;;;;;;;;2.00;1.33;;;;;14.29;86.86;101383.56;5002435;28;9375;-68
2023/08/07 05:44:08;;;;;;;;;2.00;2.00;;;;;14.32;87.17;101387.75;4999249;28;9098;-66
2023/08/07 05:46:34;;;;;;;;;1.00;1.00;;;;;14.35;86.88;101396.31;5007977;28;9399;-67
2023/08/07 05:49:02;;;;;;;;;2.00;1.00;;;;;14.40;86.81;101395.69;5000295;28;9247;-67
2023/08/07 05:51:28;;;;;;;;;4.00;3.00;;;;;14.43;87.01;101397.97;5009291;28;9021;-67
2023/08/07 05:53:54;;;;;;;;;1.67;1.67;;;;;14.44;86.63;101394.22;4993355;28;9310;-67
2023/08/07 05:56:21;;;;;;;;;2.67;2.00;;;;;14.45;86.55;101400.47;5000148;28;9189;-67
2023/08/07 05:58:47;;;;;;;;;1.00;1.00;;;;;14.45;86.35;101403.19;5001061;28;9101;-67
2023/08/07 06:01:17;;;;;;;;;2.33;2.33;;;;;14.44;85.95;101405.06;5020945;28;9178;-67
2023/08/07 06:03:43;;;;;;;;;3.00;3.00;;;;;14.45;85.77;101405.91;5000341;28;9064;-68
2023/08/07 06:06:10;;;;;;;;;3.33;2.00;;;;;14.41;85.35;101407.34;5006324;28;9096;-67
2023/08/07 06:08:36;;;;;;;;;3.00;2.67;;;;;14.44;84.88;101415.06;5008541;28;9182;-67
2023/08/07 06:11:04;;;;;;;;;3.00;3.00;;;;;14.43;85.20;101416.13;5000085;28;9198;-67
2023/08/07 06:13:31;;;;;;;;;2.33;2.33;;;;;14.44;84.96;101415.06;4998483;28;9183;-67
2023/08/07 06:16:02;;;;;;;;;3.00;3.00;;;;;14.43;84.64;101419.66;5008647;28;9226;-67
2023/08/07 06:18:29;;;;;;;;;3.00;2.33;;;;;14.45;85.07;101419.44;4999360;28;9316;-68
2023/08/07 06:20:56;;;;;;;;;5.00;1.67;;;;;14.45;84.95;101422.16;5002289;28;9926;-67
2023/08/07 06:23:23;;;;;;;;;2.33;2.33;;;;;14.42;85.25;101417.13;5010853;28;9187;-68
2023/08/07 06:25:49;;;;;;;;;4.00;3.00;;;;;14.42;84.99;101419.84;5001681;28;9244;-68
2023/08/07 06:28:22;;;;;;;;;2.00;2.00;;;;;14.47;85.46;101430.91;5008265;28;9248;-67
2023/08/07 06:30:48;;;;;;;;;2.00;2.00;;;;;14.50;85.27;101435.94;5009183;28;9281;-66
2023/08/07 06:33:15;;;;;;;;;2.00;1.00;;;;;14.52;85.51;101432.00;5010699;28;9162;-67
2023/08/07 06:35:42;;;;;;;;;2.67;2.67;;;;;14.55;85.17;101442.44;5010748;28;9227;-67
2023/08/07 06:38:09;;;;;;;;;2.00;2.00;;;;;14.54;85.43;101440.75;5009369;28;9107;-67
2023/08/07 06:40:35;;;;;;;;;2.33;1.33;;;;;14.53;85.13;101438.25;5010505;28;9074;-67
2023/08/07 06:43:02;;;;;;;;;3.00;3.00;;;;;14.53;85.54;101435.53;5008622;28;9026;-67
2023/08/07 06:45:28;;;;;;;;;4.67;4.67;;;;;14.52;85.19;101448.25;5000609;28;9255;-67
2023/08/07 06:47:56;;;;;;;;;2.00;2.00;;;;;14.54;84.99;101443.47;5009131;28;9302;-67
2023/08/07 06:50:24;;;;;;;;;5.00;1.67;;;;;14.59;84.39;101445.56;5010345;28;9231;-67
2023/08/07 06:52:50;;;;;;;;;5.67;2.00;;;;;14.64;84.18;101451.19;5010763;28;9979;-67
2023/08/07 06:55:18;;;;;;;;;8.00;3.67;;;;;14.67;83.78;101448.06;5010396;28;9298;-67
2023/08/07 06:57:45;;;;;;;;;4.00;3.00;;;;;14.68;83.16;101457.84;5010376;28;9087;-67
2023/08/07 07:00:12;;;;;;;;;3.00;3.00;;;;;14.64;83.33;101451.19;5009313;28;9097;-67
2023/08/07 07:02:38;;;;;;;;;3.00;2.00;;;;;14.60;83.64;101452.63;5005369;28;9068;-67
2023/08/07 07:05:05;;;;;;;;;1.67;1.67;;;;;14.64;83.90;101463.91;5025643;28;9121;-67
2023/08/07 07:07:31;;;;;;;;;3.00;3.00;;;;;14.72;83.72;101458.28;5010300;28;9093;-67
2023/08/07 07:10:00;;;;;;;;;4.67;3.33;;;;;14.77;83.46;101461.19;5008937;28;9075;-67
2023/08/07 07:12:27;;;;;;;;;2.33;2.00;;;;;14.79;83.30;101462.69;5009178;28;9818;-67
2023/08/07 07:14:54;;;;;;;;;4.67;2.67;;;;;14.76;83.13;101465.78;5007106;28;8912;-67
2023/08/07 07:17:20;;;;;;;;;1.33;1.33;;;;;14.78;83.63;101465.56;5011386;28;9078;-68
2023/08/07 07:19:47;;;;;;;;;2.33;2.33;;;;;14.77;83.28;101464.75;5012929;28;9807;-67
2023/08/07 07:22:13;;;;;;;;;4.00;2.00;;;;;14.72;83.21;101469.97;5013178;28;9210;-67
2023/08/07 07:24:40;;;;;;;;;2.33;2.33;;;;;14.71;82.73;101481.84;5014350;28;8989;-67
2023/08/07 07:27:06;;;;;;;;;3.00;2.00;;;;;14.72;83.06;101478.09;5014217;28;9200;-68
2023/08/07 07:29:33;;;;;;;;;1.00;0.00;;;;;14.74;83.27;101475.16;5014339;28;8920;-67
2023/08/07 07:31:59;;;;;;;;;6.00;4.00;;;;;14.69;82.86;101488.50;5009452;28;9011;-67
2023/08/07 07:34:26;;;;;;;;;4.33;4.33;;;;;14.62;82.22;101493.06;5013816;28;9850;-67
2023/08/07 07:36:54;;;;;;;;;2.00;2.00;;;;;14.53;82.36;101503.25;5028898;28;9117;-67
2023/08/07 07:39:21;;;;;;;;;2.33;2.33;;;;;14.51;82.32;101511.59;5013556;28;9185;-68
2023/08/07 07:41:47;;;;;;;;;3.00;3.00;;;;;14.51;82.25;101510.78;5007121;28;9680;-68
2023/08/07 07:44:14;;;;;;;;;1.00;1.00;;;;;14.56;82.15;101508.28;5014102;28;9237;-67
2023/08/07 07:46:40;;;;;;;;;1.67;1.67;;;;;14.54;81.73;101508.50;5013810;28;8992;-67
2023/08/07 07:49:06;;;;;;;;;5.33;2.00;;;;;14.61;81.27;101507.66;5014015;28;8993;-67
2023/08/07 07:51:35;;;;;;;;;2.33;2.00;;;;;14.65;81.16;101515.16;5012392;28;9800;-67
2023/08/07 07:54:01;;;;;;;;;4.67;2.00;;;;;14.71;80.86;101510.81;5013783;28;9253;-67
2023/08/07 07:56:41;;;;;;;;;2.00;1.00;;;;;14.77;81.06;101515.41;5007056;28;9068;-67
2023/08/07 07:59:08;;;;;;;;;2.00;2.00;;;;;14.88;80.96;101514.81;5013821;28;9154;-67
2023/08/07 08:01:35;;;;;;;;;4.67;4.33;;;;;14.97;80.33;101512.72;5013406;28;9039;-67
2023/08/07 08:04:02;;;;;;;;;11.67;1.00;;;;;14.97;80.28;101510.84;5013669;28;9170;-67
2023/08/07 08:06:30;;;;;;;;;4.00;2.67;;;;;14.96;80.30;101519.19;5013356;28;9136;-68
2023/08/07 08:08:57;;;;;;;;;1.33;1.33;;;;;14.97;79.51;101534.41;5013622;28;9023;-68
2023/08/07 08:11:23;;;;;;;;;3.67;2.67;;;;;14.89;79.20;101556.31;5013332;28;8998;-68
2023/08/07 08:13:50;;;;;;;;;2.00;2.00;;;;;14.78;78.83;101547.72;5003991;28;9181;-67
2023/08/07 08:16:17;;;;;;;;;7.33;3.00;;;;;14.70;79.79;101550.63;5004851;28;9902;-68
2023/08/07 08:18:44;;;;;;;;;2.00;2.00;;;;;14.61;80.50;101554.56;4992146;28;9078;-68
2023/08/07 08:21:10;;;;;;;;;1.33;1.33;;;;;14.59;80.43;101553.94;4993428;28;9112;-67
2023/08/07 08:23:37;;;;;;;;;4.00;3.67;;;;;14.63;81.21;101557.91;4993521;28;8918;-67
2023/08/07 08:26:03;;;;;;;;;3.00;3.00;;;;;14.67;80.95;101550.22;4992476;28;8990;-68
2023/08/07 08:28:30;;;;;;;;;3.00;2.00;;;;;14.75;81.25;101559.00;4993534;28;9886;-68
2023/08/07 08:30:56;;;;;;;;;2.33;2.00;;;;;14.82;81.29;101559.81;4995622;28;9026;-67
2023/08/07 08:33:23;;;;;;;;;1.00;1.00;;;;;14.95;81.31;101558.19;5009915;28;8999;-67
2023/08/07 08:35:50;;;;;;;;;1.33;1.33;;;;;14.98;80.97;101557.78;5012863;28;9616;-67
2023/08/07 08:38:17;;;;;;;;;2.00;2.00;;;;;14.96;80.32;101565.28;5012919;28;8932;-68
2023/08/07 08:40:50;;;;;;;;;3.00;3.00;;;;;14.93;80.38;101554.84;5011581;28;9064;-68
2023/08/07 08:43:17;;;;;;;;;2.00;2.00;;;;;15.01;80.18;101560.06;5012696;28;9066;-68
2023/08/07 08:45:44;;;;;;;;;0.00;0.00;;;;;15.07;79.81;101551.97;5009533;28;9801;-68
2023/08/07 08:48:21;;;;;;;;;3.00;3.00;;;;;15.16;80.02;101549.88;5007949;28;9439;-67
2023/08/07 08:50:50;;;;;;;;;2.67;1.00;;;;;15.25;79.52;101550.50;5008099;28;8931;-68
2023/08/07 08:53:16;;;;;;;;;4.67;3.00;;;;;15.29;79.34;101551.78;4993060;28;9020;-67
2023/08/07 08:55:46;;;;;;;;;3.00;1.67;;;;;15.33;78.81;101555.72;4975606;28;9741;-67
2023/08/07 08:58:16;;;;;;;;;1.33;1.33;;;;;15.31;77.98;101561.38;4993182;28;9016;-68
2023/08/07 09:00:43;;;;;;;;;3.00;2.25;;;;;15.27;77.28;101570.97;4992698;28;9196;-67
2023/08/07 09:03:10;;;;;;;;;5.00;2.00;;;;;15.20;76.95;101580.16;4991652;28;8821;-67
2023/08/07 09:05:37;;;;;;;;;2.00;2.00;;;;;15.15;77.04;101579.91;5004758;28;9788;-68
2023/08/07 09:08:05;;;;;;;;;3.00;2.00;;;;;15.16;77.12;101576.19;5005164;28;9018;-67
2023/08/07 09:10:32;;;;;;;;;2.67;2.67;;;;;15.11;76.68;101584.94;5010030;28;9071;-67
2023/08/07 09:13:05;;;;;;;;;1.33;1.33;;;;;15.14;77.01;101584.50;5027853;28;9819;-67
2023/08/07 09:15:33;;;;;;;;;1.67;1.67;;;;;15.14;76.91;101587.22;5027989;28;9055;-67
2023/08/07 09:18:02;;;;;;;;;3.00;2.00;;;;;15.11;77.20;101593.06;5012239;28;9015;-67
2023/08/07 09:20:29;;;;;;;;;1.67;1.67;;;;;15.11;77.06;101601.22;5012165;28;9092;-67
2023/08/07 09:22:55;;;;;;;;;1.33;1.00;;;;;15.13;76.92;101604.53;5008423;28;9225;-67
2023/08/07 09:25:31;;;;;;;;;2.00;2.00;;;;;15.12;77.50;101602.88;5012152;28;9626;-67
2023/08/07 09:27:57;;;;;;;;;2.00;2.00;;;;;15.06;78.57;101604.50;5011748;28;9564;-67
2023/08/07 09:30:30;;;;;;;;;2.00;2.00;;;;;15.09;78.98;101598.69;5011783;28;8992;-68
2023/08/07 09:32:58;;;;;;;;;0.67;0.00;;;;;15.12;79.62;101602.03;5012146;28;9077;-68
2023/08/07 09:35:25;;;;;;;;;3.00;2.00;;;;;15.18;80.43;101606.63;5011963;28;9000;-68
2023/08/07 09:37:52;;;;;;;;;3.67;2.00;;;;;15.27;80.02;101603.53;5011618;28;9005;-67
2023/08/07 09:40:19;;;;;;;;;2.00;2.00;;;;;15.37;79.65;101610.41;5005751;28;8990;-67
2023/08/07 09:42:52;;;;;;;;;3.33;3.33;;;;;15.42;79.50;101608.72;5010333;28;9023;-67
2023/08/07 09:45:19;;;;;;;;;2.67;2.67;;;;;15.42;79.15;101613.34;5008954;28;8977;-68
2023/08/07 09:47:46;;;;;;;;;2.00;1.00;;;;;15.48;78.87;101610.63;5003318;28;8982;-67
2023/08/07 09:50:17;;;;;;;;;1.00;1.00;;;;;15.55;78.95;101616.88;5011434;28;8916;-68
2023/08/07 09:52:48;;;;;;;;;1.00;1.00;;;;;15.62;78.10;101611.47;5011642;28;8988;-67
2023/08/07 09:55:15;;;;;;;;;1.25;1.25;;;;;15.68;78.32;101607.13;5011780;28;8912;-68
2023/08/07 09:57:43;;;;;;;;;1.50;1.50;;;;;15.71;77.64;101602.09;5010222;28;8858;-68
2023/08/07 10:00:12;;;;;;;;;3.00;3.00;;;;;15.69;77.75;101608.78;5006593;28;8912;-68
2023/08/07 10:02:41;;;;;;;;;2.00;2.00;;;;;15.64;76.68;101620.25;5017632;28;8995;-67
2023/08/07 10:05:12;;;;;;;;;1.00;1.00;;;;;15.64;76.74;101617.53;5010249;28;8946;-67
2023/08/07 10:07:40;;;;;;;;;1.00;1.00;;;;;15.68;76.58;101618.81;5011106;28;8851;-68
2023/08/07 10:10:08;;;;;;;;;4.00;2.00;;;;;15.68;76.29;101612.56;5024907;28;8955;-67
2023/08/07 10:12:34;;;;;;;;;1.00;1.00;;;;;15.70;75.21;101619.44;5006288;28;8919;-68
2023/08/07 10:15:01;;;;;;;;;2.00;1.33;;;;;15.74;74.53;101617.97;5011388;28;8827;-67
2023/08/07 10:17:30;;;;;;;;;1.00;1.00;;;;;15.72;74.63;101617.34;5011211;28;9646;-67
2023/08/07 10:19:57;;;;;;;;;3.00;2.00;;;;;15.79;74.30;101623.59;5025861;28;8939;-67
2023/08/07 10:22:26;;;;;;;;;1.50;1.50;;;;;15.81;73.94;101631.53;5011340;28;8831;-68
2023/08/07 10:24:53;;;;;;;;;6.33;4.00;;;;;15.75;74.36;101627.78;5006934;28;8835;-68
2023/08/07 10:27:23;;;;;;;;;1.75;1.75;;;;;15.79;74.51;101642.59;5005999;28;8929;-67
2023/08/07 10:29:54;;;;;;;;;2.00;2.00;;;;;15.76;73.94;101639.50;5010717;28;8947;-68
2023/08/07 10:32:24;;;;;;;;;1.00;1.00;;;;;15.79;74.20;101642.59;5011049;28;8850;-68
2023/08/07 10:34:50;;;;;;;;;1.00;1.00;;;;;15.83;73.81;101632.16;5010879;28;8897;-68
2023/08/07 10:37:42;;;;;;;;;1.00;1.00;;;;;15.90;73.73;101637.59;5010882;28;9775;-67
2023/08/07 10:40:10;;;;;;;;;2.00;1.50;;;;;15.97;73.49;101639.25;5007077;28;9038;-67
2023/08/07 10:42:56;;;;;;;;;2.25;2.25;;;;;16.05;73.56;101641.75;5008272;28;8840;-68
2023/08/07 10:45:24;;;;;;;;;1.75;1.25;;;;;16.07;73.48;101647.78;5026025;28;8907;-68
2023/08/07 10:48:08;;;;;;;;;2.50;2.50;;;;;16.09;73.53;101644.88;5009454;28;8917;-68
2023/08/07 10:50:48;;;;;;;;;6.00;3.33;;;;;16.13;74.03;101648.03;5008816;28;8835;-68
2023/08/07 10:53:29;;;;;;;;;4.00;2.00;;;;;16.18;73.42;101648.22;5010560;28;8954;-68
2023/08/07 10:55:58;;;;;;;;;2.67;2.00;;;;;16.25;73.57;101651.75;5009220;28;8909;-67
2023/08/07 10:58:33;;;;;;;;;2.33;2.00;;;;;16.24;73.04;101645.47;5004927;28;9005;-67
2023/08/07 11:01:26;;;;;;;;;2.67;2.67;;;;;16.24;72.31;101647.34;5010279;28;9063;-67
2023/08/07 11:03:59;;;;;;;;;1.25;1.25;;;;;16.22;72.59;101653.00;5010419;28;8933;-68
2023/08/07 11:06:31;;;;;;;;;1.00;1.00;;;;;16.25;72.70;101659.91;5002541;28;8939;-68
2023/08/07 11:08:59;;;;;;;;;1.00;1.00;;;;;16.17;69.95;101669.13;5010152;28;8921;-68
2023/08/07 11:11:26;;;;;;;;;1.50;1.50;;;;;16.07;67.90;101657.84;5010332;28;8831;-68
2023/08/07 11:13:53;;;;;;;;;2.00;1.00;;;;;16.05;65.96;101654.50;5010465;28;8827;-67
2023/08/07 11:16:22;;;;;;;;;1.00;1.00;;;;;16.19;65.67;101653.44;5025452;28;8835;-67
2023/08/07 11:18:49;;;;;;;;;1.00;1.00;;;;;16.31;64.79;101651.72;5010524;28;8819;-67
2023/08/07 11:21:16;;;;;;;;;2.00;1.00;;;;;16.38;64.60;101662.59;5003526;28;8858;-67
2023/08/07 11:23:44;;;;;;;;;3.50;2.00;;;;;16.33;63.41;101662.41;5009697;28;8827;-67
2023/08/07 11:26:10;;;;;;;;;1.25;1.00;;;;;16.27;63.81;101655.91;5008907;28;8835;-66
2023/08/07 11:28:37;;;;;;;;;0.25;0.25;;;;;16.28;61.30;101668.44;5010183;28;8849;-66
2023/08/07 11:31:04;;;;;;;;;0.50;0.50;;;;;16.31;62.55;101661.75;5009952;28;8831;-67
2023/08/07 11:33:31;;;;;;;;;2.00;2.00;;;;;16.40;63.13;101659.66;5000878;28;8845;-67
2023/08/07 11:35:58;;;;;;;;;0.75;0.75;;;;;16.47;63.61;101655.88;5010182;28;8958;-67
2023/08/07 11:38:34;;;;;;;;;2.00;2.00;;;;;16.60;64.12;101656.88;5010172;28;8913;-66